createdAt,value
2019-01-26T00:00:33.160Z,65.60
2019-01-26T00:03:04.651Z,65.70
2019-01-26T00:05:36.693Z,65.80
2019-01-26T00:08:08.145Z,65.70
2019-01-26T00:10:39.315Z,65.70
2019-01-26T00:13:11.477Z,65.70
2019-01-26T00:15:42.823Z,65.60
2019-01-26T00:18:14.127Z,65.50
2019-01-26T00:20:45.500Z,65.60
2019-01-26T00:23:16.800Z,65.70
2019-01-26T00:25:47.867Z,65.70
2019-01-26T00:28:18.798Z,65.90
2019-01-26T00:30:49.838Z,66.10
2019-01-26T00:33:20.869Z,66.10
2019-01-26T00:35:52.125Z,66.40
2019-01-26T00:38:24.372Z,66.50
2019-01-26T00:40:55.476Z,66.50
2019-01-26T00:43:26.463Z,66.50
2019-01-26T00:45:57.454Z,66.50
2019-01-26T00:48:28.865Z,66.40
2019-01-26T00:50:59.890Z,66.60
2019-01-26T00:53:30.910Z,66.60
2019-01-26T00:56:01.850Z,66.60
2019-01-26T00:58:32.898Z,66.60
2019-01-26T01:01:03.946Z,66.50
2019-01-26T01:03:35.175Z,66.40
2019-01-26T01:06:06.426Z,66.40
2019-01-26T01:08:37.314Z,66.30
2019-01-26T01:11:08.561Z,66.30
2019-01-26T01:13:39.523Z,66.20
2019-01-26T01:16:10.588Z,66.10
2019-01-26T01:18:41.639Z,66.00
2019-01-26T01:21:12.600Z,65.80
2019-01-26T01:23:43.797Z,65.80
2019-01-26T01:26:14.915Z,65.80
2019-01-26T01:28:45.879Z,65.80
2019-01-26T01:31:16.980Z,65.90
2019-01-26T01:33:47.976Z,65.90
2019-01-26T01:36:19.061Z,66.00
2019-01-26T01:38:50.044Z,66.00
2019-01-26T01:41:20.983Z,65.80
2019-01-26T01:43:51.966Z,65.60
2019-01-26T01:46:22.879Z,65.50
2019-01-26T01:48:53.927Z,65.50
2019-01-26T01:51:24.963Z,65.40
2019-01-26T01:53:58.594Z,65.60
2019-01-26T01:56:29.812Z,65.30
2019-01-26T01:59:00.709Z,65.20
2019-01-26T02:01:31.660Z,65.20
2019-01-26T02:04:02.648Z,65.60
2019-01-26T02:06:33.754Z,65.40
2019-01-26T02:09:06.708Z,65.40
2019-01-26T02:11:37.990Z,65.10
2019-01-26T02:14:10.134Z,65.30
2019-01-26T02:16:41.085Z,65.20
2019-01-26T02:19:11.978Z,65.30
2019-01-26T02:21:42.894Z,65.40
2019-01-26T02:24:13.979Z,65.40
2019-01-26T02:26:46.236Z,65.00
2019-01-26T02:29:17.274Z,64.90
2019-01-26T02:31:48.401Z,64.80
2019-01-26T02:34:16.603Z,64.90
2019-01-26T02:36:47.438Z,65.10
2019-01-26T02:39:18.345Z,65.00
2019-01-26T02:41:49.411Z,64.90
2019-01-26T02:44:20.337Z,64.70
2019-01-26T02:46:57.781Z,64.70
2019-01-26T02:49:23.813Z,64.30
2019-01-26T02:51:54.709Z,64.30
2019-01-26T02:54:25.698Z,64.10
2019-01-26T02:56:56.832Z,64.20
2019-01-26T02:59:27.788Z,64.30
2019-01-26T03:01:58.755Z,64.10
2019-01-26T03:04:29.767Z,64.10
2019-01-26T03:07:00.677Z,64.20
2019-01-26T03:09:31.772Z,64.30
2019-01-26T03:12:02.664Z,64.40
2019-01-26T03:14:35.404Z,64.30
2019-01-26T03:17:06.938Z,64.30
2019-01-26T03:19:38.068Z,64.20
2019-01-26T03:22:09.231Z,64.10
2019-01-26T03:24:40.162Z,64.20
2019-01-26T03:27:11.076Z,64.20
2019-01-26T03:29:41.976Z,64.40
2019-01-26T03:32:13.887Z,64.30
2019-01-26T03:34:44.774Z,64.30
2019-01-26T03:37:15.816Z,64.20
2019-01-26T03:39:46.722Z,64.00
2019-01-26T03:42:17.679Z,64.00
2019-01-26T03:44:48.577Z,63.70
2019-01-26T03:47:19.443Z,63.60
2019-01-26T03:49:50.426Z,63.40
2019-01-26T03:52:21.279Z,63.20
2019-01-26T03:54:52.222Z,63.00
2019-01-26T03:57:23.073Z,63.00
2019-01-26T03:59:54.034Z,63.10
2019-01-26T04:02:25.050Z,63.10
2019-01-26T04:04:56.019Z,63.00
2019-01-26T04:07:26.911Z,63.20
2019-01-26T04:09:58.155Z,63.10
2019-01-26T04:12:29.348Z,63.30
2019-01-26T04:15:00.293Z,63.20
2019-01-26T04:17:31.485Z,63.20
2019-01-26T04:20:02.604Z,63.20
2019-01-26T04:22:33.429Z,63.20
2019-01-26T04:25:05.111Z,63.20
2019-01-26T04:27:36.014Z,63.30
2019-01-26T04:30:09.083Z,63.20
2019-01-26T04:32:40.042Z,63.40
2019-01-26T04:35:11.402Z,63.10
2019-01-26T04:37:42.129Z,62.80
2019-01-26T04:40:14.663Z,62.80
2019-01-26T04:42:45.453Z,62.80
2019-01-26T04:45:21.596Z,62.80
2019-01-26T04:47:52.545Z,62.70
2019-01-26T04:50:23.466Z,62.70
2019-01-26T04:52:54.355Z,62.20
2019-01-26T04:55:25.226Z,62.30
2019-01-26T04:57:57.315Z,62.30
2019-01-26T05:00:29.204Z,62.30
2019-01-26T05:03:00.090Z,62.10
2019-01-26T05:05:30.855Z,62.30
2019-01-26T05:08:01.638Z,62.30
2019-01-26T05:10:32.457Z,62.40
2019-01-26T05:13:03.262Z,62.30
2019-01-26T05:15:34.129Z,62.30
2019-01-26T05:20:56.978Z,61.90
2019-01-26T05:23:27.793Z,62.10
2019-01-26T05:25:58.671Z,62.10
2019-01-26T05:28:29.710Z,62.30
2019-01-26T05:31:00.589Z,61.90
2019-01-26T05:33:31.392Z,61.90
2019-01-26T05:36:02.313Z,61.90
2019-01-26T05:38:33.207Z,61.90
2019-01-26T05:41:04.109Z,61.90
2019-01-26T05:43:35.084Z,62.00
2019-01-26T05:46:05.960Z,61.80
2019-01-26T05:48:36.771Z,61.60
2019-01-26T05:51:07.928Z,61.60
2019-01-26T05:53:38.836Z,61.70
2019-01-26T05:56:09.832Z,61.60
2019-01-26T05:58:40.745Z,61.60
2019-01-26T06:01:11.769Z,61.60
2019-01-26T06:03:42.675Z,61.60
2019-01-26T06:06:13.740Z,61.60
2019-01-26T06:11:14.463Z,61.50
2019-01-26T06:13:45.510Z,61.50
2019-01-26T06:16:16.366Z,61.60
2019-01-26T06:18:47.225Z,61.30
2019-01-26T06:21:18.126Z,61.50
2019-01-26T06:23:49.095Z,61.60
2019-01-26T06:26:20.221Z,61.50
2019-01-26T06:28:51.315Z,61.40
2019-01-26T06:31:23.040Z,61.50
2019-01-26T06:33:53.972Z,61.50
2019-01-26T06:36:25.370Z,61.40
2019-01-26T06:38:56.410Z,61.30
2019-01-26T06:41:27.400Z,61.20
2019-01-26T06:43:58.374Z,61.30
2019-01-26T06:46:29.881Z,61.40
2019-01-26T06:49:01.684Z,61.50
2019-01-26T06:51:32.985Z,61.50
2019-01-26T06:54:04.501Z,61.60
2019-01-26T06:56:35.371Z,61.50
2019-01-26T06:59:06.665Z,61.50
2019-01-26T07:01:37.934Z,61.60
2019-01-26T07:04:11.044Z,61.70
2019-01-26T07:07:05.808Z,61.70
2019-01-26T07:09:37.638Z,61.40
2019-01-26T07:12:09.722Z,61.40
2019-01-26T07:14:41.856Z,61.50
2019-01-26T07:17:13.822Z,61.30
2019-01-26T07:19:46.232Z,61.10
2019-01-26T07:22:18.220Z,61.00
2019-01-26T07:24:50.020Z,60.70
2019-01-26T07:27:22.149Z,60.60
2019-01-26T07:29:54.137Z,60.10
2019-01-26T07:32:27.664Z,59.80
2019-01-26T07:34:59.705Z,59.80
2019-01-26T07:37:32.474Z,59.90
2019-01-26T07:40:10.708Z,59.90
2019-01-26T07:42:43.323Z,59.50
2019-01-26T07:45:15.635Z,59.40
2019-01-26T07:47:47.690Z,59.40
2019-01-26T07:50:22.427Z,59.20
2019-01-26T07:52:53.542Z,59.10
2019-01-26T07:55:25.125Z,59.10
2019-01-26T07:57:57.642Z,59.00
2019-01-26T08:00:28.900Z,58.70
2019-01-26T08:02:59.728Z,58.60
2019-01-26T08:05:30.602Z,58.70
2019-01-26T08:08:01.419Z,58.70
2019-01-26T08:10:33.041Z,58.80
2019-01-26T08:13:04.921Z,58.50
2019-01-26T08:15:38.650Z,58.60
2019-01-26T08:18:11.427Z,58.60
2019-01-26T08:20:42.597Z,58.20
2019-01-26T08:23:13.717Z,57.70
2019-01-26T08:25:44.683Z,57.70
2019-01-26T08:28:15.724Z,57.50
2019-01-26T08:30:46.743Z,57.30
2019-01-26T08:33:18.874Z,57.10
2019-01-26T08:35:54.466Z,56.90
2019-01-26T08:38:31.671Z,56.70
2019-01-26T08:41:02.725Z,56.70
2019-01-26T08:43:33.761Z,56.20
2019-01-26T08:46:04.711Z,56.20
2019-01-26T08:48:34.759Z,56.00
2019-01-26T08:51:05.801Z,56.10
2019-01-26T08:53:41.143Z,56.20
2019-01-26T08:56:12.364Z,55.90
2019-01-26T08:58:43.229Z,56.10
2019-01-26T09:01:14.430Z,56.00
2019-01-26T09:03:59.756Z,55.70
2019-01-26T09:06:34.133Z,55.50
2019-01-26T09:09:09.341Z,55.40
2019-01-26T09:11:40.373Z,55.10
2019-01-26T09:14:11.404Z,54.70
2019-01-26T09:16:42.260Z,54.80
2019-01-26T09:19:13.188Z,54.80
2019-01-26T09:21:44.081Z,54.80
2019-01-26T09:24:14.875Z,54.60
2019-01-26T09:26:46.187Z,54.60
2019-01-26T09:29:17.064Z,54.50
2019-01-26T09:31:47.957Z,54.50
2019-01-26T09:34:18.815Z,53.60
2019-01-26T09:36:49.789Z,52.10
2019-01-26T09:39:20.551Z,50.60
2019-01-26T09:41:51.624Z,50.30
2019-01-26T09:44:22.452Z,49.50
2019-01-26T09:46:53.355Z,49.40
2019-01-26T09:49:24.183Z,49.60
2019-01-26T09:51:55.138Z,50.30
2019-01-26T09:54:26.075Z,50.40
2019-01-26T09:56:56.871Z,51.00
2019-01-26T09:59:27.705Z,51.30
2019-01-26T10:01:58.598Z,51.50
2019-01-26T10:04:29.413Z,51.30
2019-01-26T10:07:00.239Z,51.10
2019-01-26T10:09:31.127Z,50.60
2019-01-26T10:12:02.426Z,50.80
2019-01-26T10:14:34.404Z,50.80
2019-01-26T10:17:05.732Z,51.40
2019-01-26T10:19:36.854Z,51.40
2019-01-26T10:22:08.057Z,51.60
2019-01-26T10:24:39.396Z,51.80
2019-01-26T10:27:10.665Z,51.80
2019-01-26T10:29:41.569Z,51.20
2019-01-26T10:32:12.521Z,51.50
2019-01-26T10:34:43.372Z,51.80
2019-01-26T10:37:18.841Z,51.50
2019-01-26T10:39:49.743Z,51.40
2019-01-26T10:42:28.426Z,51.50
2019-01-26T10:44:59.259Z,51.70
2019-01-26T10:47:30.103Z,51.60
2019-01-26T10:50:01.009Z,51.70
2019-01-26T10:52:32.242Z,51.50
2019-01-26T10:55:04.044Z,51.30
2019-01-26T10:57:35.405Z,51.00
2019-01-26T11:00:09.500Z,51.20
2019-01-26T11:02:40.679Z,51.30
2019-01-26T11:05:12.221Z,51.10
2019-01-26T11:07:43.391Z,51.00
2019-01-26T11:10:14.978Z,50.30
2019-01-26T11:12:46.599Z,50.20
2019-01-26T11:15:18.133Z,50.70
2019-01-26T11:17:49.739Z,50.70
2019-01-26T11:20:21.132Z,50.80
2019-01-26T11:22:52.403Z,50.70
2019-01-26T11:25:23.901Z,50.40
2019-01-26T11:27:55.452Z,50.60
2019-01-26T11:30:28.295Z,50.80
2019-01-26T11:32:59.642Z,50.50
2019-01-26T11:35:30.917Z,50.40
2019-01-26T11:38:02.281Z,50.70
2019-01-26T11:40:34.446Z,50.70
2019-01-26T11:43:05.873Z,50.70
2019-01-26T11:46:01.848Z,50.20
2019-01-26T11:48:36.011Z,50.00
2019-01-26T11:51:27.235Z,50.00
2019-01-26T11:54:00.378Z,49.90
2019-01-26T11:56:36.650Z,50.00
2019-01-26T11:59:06.868Z,50.00
2019-01-26T12:02:00.513Z,50.10
2019-01-26T12:04:39.927Z,50.20
2019-01-26T12:07:13.587Z,49.70
2019-01-26T12:09:44.787Z,49.80
2019-01-26T12:12:16.094Z,49.70
2019-01-26T12:14:47.103Z,49.50
2019-01-26T12:17:18.276Z,49.40
2019-01-26T12:19:49.387Z,49.30
2019-01-26T12:22:21.685Z,48.80
2019-01-26T12:24:53.006Z,49.00
2019-01-26T12:27:24.514Z,49.20
2019-01-26T12:29:55.839Z,49.60
2019-01-26T12:32:34.529Z,49.90
2019-01-26T12:35:06.446Z,50.00
2019-01-26T12:37:39.268Z,50.10
2019-01-26T12:40:11.259Z,50.10
2019-01-26T12:42:43.262Z,50.20
2019-01-26T12:45:17.196Z,49.80
2019-01-26T12:47:48.697Z,49.70
2019-01-26T12:50:20.650Z,50.00
2019-01-26T12:52:51.927Z,50.20
2019-01-26T12:55:23.187Z,50.30
2019-01-26T12:57:54.537Z,50.00
2019-01-26T13:00:27.275Z,49.90
2019-01-26T13:02:58.652Z,49.50
2019-01-26T13:05:29.814Z,49.80
2019-01-26T13:08:00.906Z,49.90
2019-01-26T13:10:35.813Z,49.90
2019-01-26T13:13:07.647Z,49.90
2019-01-26T13:15:38.893Z,49.80
2019-01-26T13:18:10.790Z,49.60
2019-01-26T13:20:43.539Z,49.40
2019-01-26T13:23:14.875Z,50.20
2019-01-26T13:28:15.846Z,49.30
2019-01-26T13:30:46.877Z,48.80
2019-01-26T13:33:18.817Z,48.90
2019-01-26T13:35:49.733Z,49.10
2019-01-26T13:38:21.429Z,49.30
2019-01-26T13:40:52.341Z,49.50
2019-01-26T13:43:23.284Z,49.60
2019-01-26T13:45:54.327Z,49.40
2019-01-26T13:48:26.625Z,49.20
2019-01-26T13:50:58.148Z,49.30
2019-01-26T13:53:29.688Z,49.70
2019-01-26T13:56:01.077Z,49.80
2019-01-26T13:58:32.553Z,50.10
2019-01-26T14:01:03.876Z,50.40
2019-01-26T14:03:35.088Z,50.60
2019-01-26T14:06:10.762Z,50.70
2019-01-26T14:08:43.016Z,50.90
2019-01-26T14:11:14.447Z,50.80
2019-01-26T14:13:45.646Z,50.90
2019-01-26T14:16:16.953Z,50.90
2019-01-26T14:18:48.182Z,51.10
2019-01-26T14:21:19.390Z,51.30
2019-01-26T14:23:50.979Z,51.20
2019-01-26T14:26:22.269Z,51.30
2019-01-26T14:28:53.495Z,51.40
2019-01-26T14:31:25.107Z,51.50
2019-01-26T14:33:56.460Z,51.50
2019-01-26T14:36:27.837Z,51.50
2019-01-26T14:39:07.051Z,51.30
2019-01-26T14:44:24.469Z,51.00
2019-01-26T14:46:55.269Z,51.00
2019-01-26T14:49:26.143Z,51.40
2019-01-26T14:51:56.904Z,51.60
2019-01-26T14:54:27.761Z,51.80
2019-01-26T14:56:58.578Z,51.90
2019-01-26T14:59:29.477Z,52.10
2019-01-26T15:02:00.316Z,52.10
2019-01-26T15:04:31.205Z,52.20
2019-01-26T15:07:02.370Z,52.10
2019-01-26T15:09:33.410Z,52.30
2019-01-26T15:12:04.607Z,52.20
2019-01-26T15:14:35.899Z,52.20
2019-01-26T15:17:06.778Z,52.30
2019-01-26T15:19:38.052Z,52.30
2019-01-26T15:22:09.378Z,52.10
2019-01-26T15:24:40.687Z,52.00
2019-01-26T15:27:11.805Z,51.90
2019-01-26T15:29:42.663Z,51.90
2019-01-26T15:32:13.718Z,51.80
2019-01-26T15:34:44.890Z,51.80
2019-01-26T15:37:16.253Z,51.90
2019-01-26T15:39:47.178Z,51.90
2019-01-26T15:42:18.202Z,51.90
2019-01-26T15:44:49.267Z,51.90
2019-01-26T15:47:20.945Z,52.00
2019-01-26T15:49:53.891Z,51.80
2019-01-26T15:52:24.825Z,52.10
2019-01-26T15:54:55.798Z,52.40
2019-01-26T15:57:27.084Z,52.70
2019-01-26T15:59:58.140Z,52.70
2019-01-26T16:02:29.048Z,52.80
2019-01-26T16:05:00.090Z,52.60
2019-01-26T16:07:30.996Z,52.40
2019-01-26T16:10:02.998Z,52.50
2019-01-26T16:12:34.038Z,52.40
2019-01-26T16:15:06.671Z,52.80
2019-01-26T16:17:37.779Z,53.20
2019-01-26T16:20:10.432Z,53.40
2019-01-26T16:22:41.627Z,53.60
2019-01-26T16:25:13.062Z,53.70
2019-01-26T16:27:44.311Z,53.70
2019-01-26T16:30:20.770Z,53.80
2019-01-26T16:32:51.974Z,53.90
2019-01-26T16:35:23.102Z,54.10
2019-01-26T16:37:54.023Z,54.20
2019-01-26T16:40:27.910Z,54.20
2019-01-26T16:42:58.842Z,54.30
2019-01-26T16:45:32.382Z,54.60
2019-01-26T16:48:03.704Z,54.60
2019-01-26T16:50:35.204Z,54.70
2019-01-26T16:53:06.626Z,54.80
2019-01-26T16:55:37.818Z,55.00
2019-01-26T17:00:47.722Z,55.10
2019-01-26T17:03:18.746Z,55.00
2019-01-26T17:05:49.630Z,55.10
2019-01-26T17:08:20.604Z,55.00
2019-01-26T17:10:51.422Z,54.90
2019-01-26T17:13:22.222Z,54.80
2019-01-26T17:15:54.009Z,54.80
2019-01-26T17:18:24.872Z,54.40
2019-01-26T17:20:55.687Z,54.40
2019-01-26T17:23:26.499Z,54.50
2019-01-26T17:25:57.325Z,54.60
2019-01-26T17:28:28.084Z,54.50
2019-01-26T17:30:58.890Z,54.30
2019-01-26T17:33:29.661Z,54.30
2019-01-26T17:36:00.913Z,54.40
2019-01-26T17:38:33.145Z,54.60
2019-01-26T17:41:04.313Z,54.60
2019-01-26T17:48:58.253Z,54.40
2019-01-26T17:51:30.769Z,54.30
2019-01-26T17:54:07.123Z,54.00
2019-01-26T17:56:54.563Z,54.00
2019-01-26T17:59:29.167Z,54.20
2019-01-26T18:02:00.250Z,54.60
2019-01-26T18:04:31.419Z,54.80
2019-01-26T18:07:02.554Z,54.90
2019-01-26T18:09:34.018Z,54.70
2019-01-26T18:12:05.565Z,54.20
2019-01-26T18:14:53.074Z,54.30
2019-01-26T18:17:24.347Z,54.30
2019-01-26T18:19:56.584Z,54.40
2019-01-26T18:22:29.434Z,54.40
2019-01-26T18:25:01.025Z,54.40
2019-01-26T18:27:35.321Z,54.40
2019-01-26T18:30:07.290Z,54.20
2019-01-26T18:32:38.728Z,54.10
2019-01-26T18:35:11.213Z,54.10
2019-01-26T18:37:42.573Z,54.30
2019-01-26T18:40:17.385Z,54.50
2019-01-26T18:42:51.672Z,54.60
2019-01-26T18:45:23.956Z,54.80
2019-01-26T18:47:55.241Z,55.20
2019-01-26T18:50:28.237Z,55.40
2019-01-26T18:52:59.578Z,55.40
2019-01-26T18:55:30.892Z,55.40
2019-01-26T18:58:01.922Z,55.70
2019-01-26T19:00:35.807Z,55.70
2019-01-26T19:03:20.978Z,55.60
2019-01-26T19:05:53.807Z,55.30
2019-01-26T19:08:24.800Z,54.70
2019-01-26T19:10:56.840Z,55.00
2019-01-26T19:13:28.058Z,55.10
2019-01-26T19:15:59.165Z,55.40
2019-01-26T19:18:30.124Z,55.70
2019-01-26T19:21:03.447Z,55.70
2019-01-26T19:23:34.161Z,55.60
2019-01-26T19:26:05.642Z,55.80
2019-01-26T19:28:36.613Z,56.00
2019-01-26T19:31:08.288Z,56.10
2019-01-26T19:33:39.616Z,56.10
2019-01-26T19:38:40.781Z,56.00
2019-01-26T19:41:12.034Z,55.80
2019-01-26T19:43:43.040Z,55.60
2019-01-26T19:46:14.669Z,55.50
2019-01-26T19:48:45.847Z,55.60
2019-01-26T19:51:16.971Z,55.60
2019-01-26T19:53:47.969Z,55.60
2019-01-26T19:56:19.012Z,55.20
2019-01-26T19:58:49.933Z,55.10
2019-01-26T20:01:21.581Z,55.20
2019-01-26T20:03:53.455Z,55.30
2019-01-26T20:06:24.558Z,55.30
2019-01-26T20:08:55.757Z,55.30
2019-01-26T20:11:26.941Z,55.20
2019-01-26T20:13:58.269Z,55.00
2019-01-26T20:16:29.523Z,55.00
2019-01-26T20:19:00.621Z,55.00
2019-01-26T20:21:31.697Z,55.10
2019-01-26T20:24:03.889Z,55.30
2019-01-26T20:26:34.929Z,55.40
2019-01-26T20:29:06.505Z,55.40
2019-01-26T20:31:37.541Z,55.30
2019-01-26T20:34:09.009Z,55.20
2019-01-26T20:36:40.268Z,55.10
2019-01-26T20:39:11.580Z,55.00
2019-01-26T20:41:43.101Z,55.00
2019-01-26T20:44:27.296Z,54.80
2019-01-26T20:47:01.413Z,54.80
2019-01-26T20:49:32.255Z,54.80
2019-01-26T20:52:03.452Z,55.00
2019-01-26T20:54:34.681Z,55.30
2019-01-26T20:57:07.482Z,56.10
2019-01-26T20:59:39.867Z,55.80
2019-01-26T21:02:11.125Z,56.20
2019-01-26T21:04:42.106Z,56.30
2019-01-26T21:07:20.393Z,56.50
2019-01-26T21:09:51.455Z,56.50
2019-01-26T21:12:22.495Z,56.70
2019-01-26T21:14:53.581Z,56.90
2019-01-26T21:17:25.338Z,56.90
2019-01-26T21:19:56.399Z,57.00
2019-01-26T21:22:27.267Z,57.10
2019-01-26T21:24:58.117Z,57.10
2019-01-26T21:27:28.922Z,57.20
2019-01-26T21:29:59.834Z,57.40
2019-01-26T21:32:30.762Z,57.50
2019-01-26T21:35:01.725Z,57.60
2019-01-26T21:37:33.838Z,57.70
2019-01-26T21:40:05.666Z,57.70
2019-01-26T21:42:36.817Z,57.60
2019-01-26T21:45:08.302Z,57.50
2019-01-26T21:47:39.583Z,57.60
2019-01-26T21:50:13.783Z,57.80
2019-01-26T21:52:44.962Z,57.90
2019-01-26T21:55:15.903Z,57.80
2019-01-26T21:57:47.154Z,57.70
2019-01-26T22:00:23.187Z,57.70
2019-01-26T22:02:54.313Z,57.60
2019-01-26T22:05:25.555Z,57.50
2019-01-26T22:07:56.570Z,57.40
2019-01-26T22:10:28.112Z,57.60
2019-01-26T22:12:59.061Z,57.60
2019-01-26T22:15:30.192Z,57.50
2019-01-26T22:18:01.383Z,57.60
2019-01-26T22:20:32.455Z,57.70
2019-01-26T22:23:03.235Z,57.80
2019-01-26T22:25:34.201Z,57.90
2019-01-26T22:28:05.556Z,57.90
2019-01-26T22:30:37.979Z,58.00
2019-01-26T22:33:09.224Z,58.00
2019-01-26T22:35:40.330Z,57.80
2019-01-26T22:38:13.103Z,57.80
2019-01-26T22:40:44.357Z,58.00
2019-01-26T22:43:16.018Z,58.00
2019-01-26T22:45:46.909Z,58.20
2019-01-26T22:48:17.754Z,58.30
2019-01-26T22:50:48.705Z,58.30
2019-01-26T22:53:19.468Z,58.30
2019-01-26T22:55:50.267Z,58.50
2019-01-26T22:58:21.132Z,58.60
2019-01-26T23:01:24.245Z,58.60
2019-01-26T23:04:05.416Z,58.80
2019-01-26T23:07:00.189Z,58.80
2019-01-26T23:10:03.086Z,58.70
2019-01-26T23:13:00.995Z,58.70
2019-01-26T23:16:03.538Z,58.80
2019-01-26T23:19:24.402Z,59.10
2019-01-26T23:22:19.934Z,59.30
2019-01-26T23:25:14.590Z,59.30
2019-01-26T23:27:53.965Z,59.30
2019-01-26T23:30:51.966Z,59.30
2019-01-26T23:33:23.123Z,59.50
2019-01-26T23:35:54.117Z,59.70
2019-01-26T23:38:25.486Z,59.90
2019-01-26T23:40:56.699Z,60.20
2019-01-26T23:43:27.605Z,60.30
2019-01-26T23:45:58.678Z,60.60
2019-01-26T23:48:29.729Z,60.70
2019-01-26T23:51:00.787Z,61.30
2019-01-26T23:53:32.376Z,61.50
2019-01-26T23:56:03.573Z,61.60
2019-01-26T23:58:34.640Z,61.70
